sensor_id;sensor_type;location;lat;lon;timestamp;temperature;humidity
52459;DHT22;38372;52.902;6.024;2023-12-20T00:02:14;6.40;99.90
52459;DHT22;38372;52.902;6.024;2023-12-20T00:04:40;6.30;99.90
52459;DHT22;38372;52.902;6.024;2023-12-20T00:07:06;6.20;99.90
52459;DHT22;38372;52.902;6.024;2023-12-20T00:09:32;6.20;99.90
52459;DHT22;38372;52.902;6.024;2023-12-20T00:11:58;6.20;99.90
52459;DHT22;38372;52.902;6.024;2023-12-20T00:14:24;6.10;99.90
52459;DHT22;38372;52.902;6.024;2023-12-20T00:16:50;6.10;99.90
52459;DHT22;38372;52.902;6.024;2023-12-20T00:19:16;6.10;99.90
52459;DHT22;38372;52.902;6.024;2023-12-20T00:21:48;6.00;99.90
52459;DHT22;38372;52.902;6.024;2023-12-20T00:24:13;6.00;99.90
52459;DHT22;38372;52.902;6.024;2023-12-20T00:26:39;6.00;99.90
52459;DHT22;38372;52.902;6.024;2023-12-20T00:29:05;6.00;99.90
52459;DHT22;38372;52.902;6.024;2023-12-20T00:31:31;6.00;99.90
52459;DHT22;38372;52.902;6.024;2023-12-20T00:34:00;6.10;99.90
52459;DHT22;38372;52.902;6.024;2023-12-20T00:36:26;6.10;99.90
52459;DHT22;38372;52.902;6.024;2023-12-20T00:38:52;6.10;99.90
52459;DHT22;38372;52.902;6.024;2023-12-20T00:41:18;6.00;99.90
52459;DHT22;38372;52.902;6.024;2023-12-20T00:43:44;6.00;99.90
52459;DHT22;38372;52.902;6.024;2023-12-20T00:46:10;5.90;99.90
52459;DHT22;38372;52.902;6.024;2023-12-20T00:48:36;5.90;99.90
52459;DHT22;38372;52.902;6.024;2023-12-20T00:51:01;5.90;99.90
52459;DHT22;38372;52.902;6.024;2023-12-20T00:53:28;6.00;99.90
52459;DHT22;38372;52.902;6.024;2023-12-20T00:55:54;6.00;99.90
52459;DHT22;38372;52.902;6.024;2023-12-20T00:58:29;6.10;99.90
52459;DHT22;38372;52.902;6.024;2023-12-20T01:00:54;6.10;99.90
52459;DHT22;38372;52.902;6.024;2023-12-20T01:03:21;6.10;99.90
52459;DHT22;38372;52.902;6.024;2023-12-20T01:05:47;6.10;99.90
52459;DHT22;38372;52.902;6.024;2023-12-20T01:08:14;6.10;99.90
52459;DHT22;38372;52.902;6.024;2023-12-20T01:10:40;6.10;99.90
52459;DHT22;38372;52.902;6.024;2023-12-20T01:13:06;6.10;99.90
52459;DHT22;38372;52.902;6.024;2023-12-20T01:15:32;6.20;99.90
52459;DHT22;38372;52.902;6.024;2023-12-20T01:17:57;6.20;99.90
52459;DHT22;38372;52.902;6.024;2023-12-20T01:20:43;6.20;99.90
52459;DHT22;38372;52.902;6.024;2023-12-20T01:23:09;6.20;99.90
52459;DHT22;38372;52.902;6.024;2023-12-20T01:25:35;6.10;99.90
52459;DHT22;38372;52.902;6.024;2023-12-20T01:28:01;6.10;99.90
52459;DHT22;38372;52.902;6.024;2023-12-20T01:30:28;6.10;99.90
52459;DHT22;38372;52.902;6.024;2023-12-20T01:32:54;6.10;99.90
52459;DHT22;38372;52.902;6.024;2023-12-20T01:35:20;6.20;99.90
52459;DHT22;38372;52.902;6.024;2023-12-20T01:37:46;6.20;99.90
52459;DHT22;38372;52.902;6.024;2023-12-20T01:40:12;6.20;99.90
52459;DHT22;38372;52.902;6.024;2023-12-20T01:42:38;6.30;99.90
52459;DHT22;38372;52.902;6.024;2023-12-20T01:45:04;6.30;99.90
52459;DHT22;38372;52.902;6.024;2023-12-20T01:47:30;6.30;99.90
52459;DHT22;38372;52.902;6.024;2023-12-20T01:49:56;6.30;99.90
52459;DHT22;38372;52.902;6.024;2023-12-20T01:52:22;6.30;99.90
52459;DHT22;38372;52.902;6.024;2023-12-20T01:54:49;6.30;99.90
52459;DHT22;38372;52.902;6.024;2023-12-20T01:57:15;6.20;99.90
52459;DHT22;38372;52.902;6.024;2023-12-20T01:59:41;6.20;99.90
52459;DHT22;38372;52.902;6.024;2023-12-20T02:02:07;6.30;99.90
52459;DHT22;38372;52.902;6.024;2023-12-20T02:04:33;6.30;99.90
52459;DHT22;38372;52.902;6.024;2023-12-20T02:06:59;6.30;99.90
52459;DHT22;38372;52.902;6.024;2023-12-20T02:09:27;6.30;99.90
52459;DHT22;38372;52.902;6.024;2023-12-20T02:11:54;6.30;99.90
52459;DHT22;38372;52.902;6.024;2023-12-20T02:14:20;6.30;99.90
52459;DHT22;38372;52.902;6.024;2023-12-20T02:16:46;6.40;99.90
52459;DHT22;38372;52.902;6.024;2023-12-20T02:19:15;6.40;99.90
52459;DHT22;38372;52.902;6.024;2023-12-20T02:21:43;6.50;99.90
52459;DHT22;38372;52.902;6.024;2023-12-20T02:24:08;6.50;99.90
52459;DHT22;38372;52.902;6.024;2023-12-20T02:26:34;6.60;99.90
52459;DHT22;38372;52.902;6.024;2023-12-20T02:29:01;6.60;99.90
52459;DHT22;38372;52.902;6.024;2023-12-20T02:31:27;6.60;99.90
52459;DHT22;38372;52.902;6.024;2023-12-20T02:33:52;6.70;99.90
52459;DHT22;38372;52.902;6.024;2023-12-20T02:36:18;6.70;99.90
52459;DHT22;38372;52.902;6.024;2023-12-20T02:38:44;6.70;99.90
52459;DHT22;38372;52.902;6.024;2023-12-20T02:41:10;6.70;99.90
52459;DHT22;38372;52.902;6.024;2023-12-20T02:43:36;6.70;99.90
52459;DHT22;38372;52.902;6.024;2023-12-20T02:46:01;6.70;99.90
52459;DHT22;38372;52.902;6.024;2023-12-20T02:48:27;6.80;99.90
52459;DHT22;38372;52.902;6.024;2023-12-20T02:50:53;6.80;99.90
52459;DHT22;38372;52.902;6.024;2023-12-20T02:53:20;6.80;99.90
52459;DHT22;38372;52.902;6.024;2023-12-20T02:55:45;6.80;99.90
52459;DHT22;38372;52.902;6.024;2023-12-20T02:58:11;6.80;99.90
52459;DHT22;38372;52.902;6.024;2023-12-20T03:00:37;6.70;99.90
52459;DHT22;38372;52.902;6.024;2023-12-20T03:03:03;6.80;99.90
52459;DHT22;38372;52.902;6.024;2023-12-20T03:05:29;6.80;99.90
52459;DHT22;38372;52.902;6.024;2023-12-20T03:07:55;6.70;99.90
52459;DHT22;38372;52.902;6.024;2023-12-20T03:10:21;6.70;99.90
52459;DHT22;38372;52.902;6.024;2023-12-20T03:12:47;6.70;99.90
52459;DHT22;38372;52.902;6.024;2023-12-20T03:15:13;6.70;99.90
52459;DHT22;38372;52.902;6.024;2023-12-20T03:17:38;6.80;99.90
52459;DHT22;38372;52.902;6.024;2023-12-20T03:20:05;6.80;99.90
52459;DHT22;38372;52.902;6.024;2023-12-20T03:22:31;6.70;99.90
52459;DHT22;38372;52.902;6.024;2023-12-20T03:24:57;6.80;99.90
52459;DHT22;38372;52.902;6.024;2023-12-20T03:27:22;6.80;99.90
52459;DHT22;38372;52.902;6.024;2023-12-20T03:29:48;6.80;99.90
52459;DHT22;38372;52.902;6.024;2023-12-20T03:32:14;6.80;99.90
52459;DHT22;38372;52.902;6.024;2023-12-20T03:34:40;6.80;99.90
52459;DHT22;38372;52.902;6.024;2023-12-20T03:37:06;6.80;99.90
52459;DHT22;38372;52.902;6.024;2023-12-20T03:39:32;6.70;99.90
52459;DHT22;38372;52.902;6.024;2023-12-20T03:41:57;6.70;99.90
52459;DHT22;38372;52.902;6.024;2023-12-20T03:44:23;6.70;99.90
52459;DHT22;38372;52.902;6.024;2023-12-20T03:46:49;6.80;99.90
52459;DHT22;38372;52.902;6.024;2023-12-20T03:49:15;6.80;99.90
52459;DHT22;38372;52.902;6.024;2023-12-20T03:51:41;6.80;99.90
52459;DHT22;38372;52.902;6.024;2023-12-20T03:54:08;6.80;99.90
52459;DHT22;38372;52.902;6.024;2023-12-20T03:56:34;6.90;99.90
52459;DHT22;38372;52.902;6.024;2023-12-20T03:58:59;6.90;99.90
52459;DHT22;38372;52.902;6.024;2023-12-20T04:01:25;6.90;99.90
52459;DHT22;38372;52.902;6.024;2023-12-20T04:03:51;6.90;99.90
52459;DHT22;38372;52.902;6.024;2023-12-20T04:06:20;7.00;99.90
52459;DHT22;38372;52.902;6.024;2023-12-20T04:08:45;7.00;99.90
52459;DHT22;38372;52.902;6.024;2023-12-20T04:11:11;7.00;99.90
52459;DHT22;38372;52.902;6.024;2023-12-20T04:13:37;7.00;99.90
52459;DHT22;38372;52.902;6.024;2023-12-20T04:16:03;7.10;99.90
52459;DHT22;38372;52.902;6.024;2023-12-20T04:18:29;7.10;99.90
52459;DHT22;38372;52.902;6.024;2023-12-20T04:20:55;7.10;99.90
52459;DHT22;38372;52.902;6.024;2023-12-20T04:23:21;7.20;99.90
52459;DHT22;38372;52.902;6.024;2023-12-20T04:25:46;7.20;99.90
52459;DHT22;38372;52.902;6.024;2023-12-20T04:28:12;7.20;99.90
52459;DHT22;38372;52.902;6.024;2023-12-20T04:30:38;7.20;99.90
52459;DHT22;38372;52.902;6.024;2023-12-20T04:33:04;7.20;99.90
52459;DHT22;38372;52.902;6.024;2023-12-20T04:35:30;7.20;99.90
52459;DHT22;38372;52.902;6.024;2023-12-20T04:37:56;7.10;99.90
52459;DHT22;38372;52.902;6.024;2023-12-20T04:40:21;7.20;99.90
52459;DHT22;38372;52.902;6.024;2023-12-20T04:42:47;7.20;99.90
52459;DHT22;38372;52.902;6.024;2023-12-20T04:45:13;7.20;99.90
52459;DHT22;38372;52.902;6.024;2023-12-20T04:47:42;7.20;99.90
52459;DHT22;38372;52.902;6.024;2023-12-20T04:50:08;7.30;99.90
52459;DHT22;38372;52.902;6.024;2023-12-20T04:52:35;7.30;99.90
52459;DHT22;38372;52.902;6.024;2023-12-20T04:55:01;7.40;99.90
52459;DHT22;38372;52.902;6.024;2023-12-20T04:57:27;7.40;99.90
52459;DHT22;38372;52.902;6.024;2023-12-20T04:59:52;7.40;99.90
52459;DHT22;38372;52.902;6.024;2023-12-20T05:02:42;7.50;99.90
52459;DHT22;38372;52.902;6.024;2023-12-20T05:05:08;7.50;99.90
52459;DHT22;38372;52.902;6.024;2023-12-20T05:07:34;7.50;99.90
52459;DHT22;38372;52.902;6.024;2023-12-20T05:10:00;7.50;99.90
52459;DHT22;38372;52.902;6.024;2023-12-20T05:12:26;7.50;99.90
52459;DHT22;38372;52.902;6.024;2023-12-20T05:15:06;7.50;99.90
52459;DHT22;38372;52.902;6.024;2023-12-20T05:17:32;7.50;99.90
52459;DHT22;38372;52.902;6.024;2023-12-20T05:19:58;7.50;99.90
52459;DHT22;38372;52.902;6.024;2023-12-20T05:22:24;7.50;99.90
52459;DHT22;38372;52.902;6.024;2023-12-20T05:24:50;7.60;99.90
52459;DHT22;38372;52.902;6.024;2023-12-20T05:27:15;7.60;99.90
52459;DHT22;38372;52.902;6.024;2023-12-20T05:29:41;7.60;99.90
52459;DHT22;38372;52.902;6.024;2023-12-20T05:32:07;7.60;99.90
52459;DHT22;38372;52.902;6.024;2023-12-20T05:34:33;7.60;99.90
52459;DHT22;38372;52.902;6.024;2023-12-20T05:36:59;7.60;99.90
52459;DHT22;38372;52.902;6.024;2023-12-20T05:39:24;7.60;99.90
52459;DHT22;38372;52.902;6.024;2023-12-20T05:41:51;7.60;99.90
52459;DHT22;38372;52.902;6.024;2023-12-20T05:44:17;7.70;99.90
52459;DHT22;38372;52.902;6.024;2023-12-20T05:46:42;7.70;99.90
52459;DHT22;38372;52.902;6.024;2023-12-20T05:49:09;7.70;99.90
52459;DHT22;38372;52.902;6.024;2023-12-20T05:51:36;7.70;99.90
52459;DHT22;38372;52.902;6.024;2023-12-20T05:54:02;7.70;99.90
52459;DHT22;38372;52.902;6.024;2023-12-20T05:56:28;7.70;99.90
52459;DHT22;38372;52.902;6.024;2023-12-20T05:58:53;7.70;99.90
52459;DHT22;38372;52.902;6.024;2023-12-20T06:01:19;7.70;99.90
52459;DHT22;38372;52.902;6.024;2023-12-20T06:03:45;7.70;99.90
52459;DHT22;38372;52.902;6.024;2023-12-20T06:06:14;7.70;99.90
52459;DHT22;38372;52.902;6.024;2023-12-20T06:08:40;7.70;99.90
52459;DHT22;38372;52.902;6.024;2023-12-20T06:11:06;7.80;99.90
52459;DHT22;38372;52.902;6.024;2023-12-20T06:13:32;7.80;99.90
52459;DHT22;38372;52.902;6.024;2023-12-20T06:15:58;7.80;99.90
52459;DHT22;38372;52.902;6.024;2023-12-20T06:18:24;7.80;99.90
52459;DHT22;38372;52.902;6.024;2023-12-20T06:20:50;7.90;99.90
52459;DHT22;38372;52.902;6.024;2023-12-20T06:23:16;7.90;99.90
52459;DHT22;38372;52.902;6.024;2023-12-20T06:25:41;7.90;99.90
52459;DHT22;38372;52.902;6.024;2023-12-20T06:28:07;7.90;99.90
52459;DHT22;38372;52.902;6.024;2023-12-20T06:30:36;8.00;99.90
52459;DHT22;38372;52.902;6.024;2023-12-20T06:33:01;7.90;99.90
52459;DHT22;38372;52.902;6.024;2023-12-20T06:35:27;8.00;99.90
52459;DHT22;38372;52.902;6.024;2023-12-20T06:37:54;8.00;99.90
52459;DHT22;38372;52.902;6.024;2023-12-20T06:40:19;8.00;99.90
52459;DHT22;38372;52.902;6.024;2023-12-20T06:42:46;7.90;99.90
52459;DHT22;38372;52.902;6.024;2023-12-20T06:45:12;8.00;99.90
52459;DHT22;38372;52.902;6.024;2023-12-20T06:47:38;8.00;99.90
52459;DHT22;38372;52.902;6.024;2023-12-20T06:50:05;8.00;99.90
52459;DHT22;38372;52.902;6.024;2023-12-20T06:52:30;7.90;99.90
52459;DHT22;38372;52.902;6.024;2023-12-20T06:54:56;8.00;99.90
52459;DHT22;38372;52.902;6.024;2023-12-20T06:57:22;8.00;99.90
52459;DHT22;38372;52.902;6.024;2023-12-20T06:59:49;8.00;99.90
52459;DHT22;38372;52.902;6.024;2023-12-20T07:02:14;8.00;99.90
52459;DHT22;38372;52.902;6.024;2023-12-20T07:04:41;8.00;99.90
52459;DHT22;38372;52.902;6.024;2023-12-20T07:07:07;8.00;99.90
52459;DHT22;38372;52.902;6.024;2023-12-20T07:09:33;8.00;99.90
52459;DHT22;38372;52.902;6.024;2023-12-20T07:11:59;8.00;99.90
52459;DHT22;38372;52.902;6.024;2023-12-20T07:14:25;8.00;99.90
52459;DHT22;38372;52.902;6.024;2023-12-20T07:16:51;8.00;99.90
52459;DHT22;38372;52.902;6.024;2023-12-20T07:19:17;8.00;99.90
52459;DHT22;38372;52.902;6.024;2023-12-20T07:21:43;8.00;99.90
52459;DHT22;38372;52.902;6.024;2023-12-20T07:24:09;8.00;99.90
52459;DHT22;38372;52.902;6.024;2023-12-20T07:26:35;8.00;99.90
52459;DHT22;38372;52.902;6.024;2023-12-20T07:29:01;8.00;99.90
52459;DHT22;38372;52.902;6.024;2023-12-20T07:31:26;8.10;99.90
52459;DHT22;38372;52.902;6.024;2023-12-20T07:33:52;8.10;99.90
52459;DHT22;38372;52.902;6.024;2023-12-20T07:36:19;8.00;99.90
52459;DHT22;38372;52.902;6.024;2023-12-20T07:38:45;8.10;99.90
52459;DHT22;38372;52.902;6.024;2023-12-20T07:41:11;8.00;99.90
52459;DHT22;38372;52.902;6.024;2023-12-20T07:43:37;8.00;99.90
52459;DHT22;38372;52.902;6.024;2023-12-20T07:46:07;8.00;99.90
52459;DHT22;38372;52.902;6.024;2023-12-20T07:48:34;8.00;99.90
52459;DHT22;38372;52.902;6.024;2023-12-20T07:51:01;8.00;99.90
52459;DHT22;38372;52.902;6.024;2023-12-20T07:53:27;8.00;99.90
52459;DHT22;38372;52.902;6.024;2023-12-20T07:55:53;8.00;99.90
52459;DHT22;38372;52.902;6.024;2023-12-20T07:58:19;8.10;99.90
52459;DHT22;38372;52.902;6.024;2023-12-20T08:00:45;8.10;99.90
52459;DHT22;38372;52.902;6.024;2023-12-20T08:03:11;8.10;99.90
52459;DHT22;38372;52.902;6.024;2023-12-20T08:05:38;8.10;99.90
52459;DHT22;38372;52.902;6.024;2023-12-20T08:08:06;8.10;99.90
52459;DHT22;38372;52.902;6.024;2023-12-20T08:10:32;8.10;99.90
52459;DHT22;38372;52.902;6.024;2023-12-20T08:12:58;8.10;99.90
52459;DHT22;38372;52.902;6.024;2023-12-20T08:15:24;8.10;99.90
52459;DHT22;38372;52.902;6.024;2023-12-20T08:17:49;8.10;99.90
52459;DHT22;38372;52.902;6.024;2023-12-20T08:20:18;8.10;99.90
52459;DHT22;38372;52.902;6.024;2023-12-20T08:22:44;8.10;99.90
52459;DHT22;38372;52.902;6.024;2023-12-20T08:25:10;8.10;99.90
52459;DHT22;38372;52.902;6.024;2023-12-20T08:27:42;8.10;99.90
52459;DHT22;38372;52.902;6.024;2023-12-20T08:30:08;8.10;99.90
52459;DHT22;38372;52.902;6.024;2023-12-20T08:32:35;8.10;99.90
52459;DHT22;38372;52.902;6.024;2023-12-20T08:35:01;8.00;99.90
52459;DHT22;38372;52.902;6.024;2023-12-20T08:37:26;8.10;99.90
52459;DHT22;38372;52.902;6.024;2023-12-20T08:39:52;8.10;99.90
52459;DHT22;38372;52.902;6.024;2023-12-20T08:42:18;8.10;99.90
52459;DHT22;38372;52.902;6.024;2023-12-20T08:44:45;8.20;99.90
52459;DHT22;38372;52.902;6.024;2023-12-20T08:47:11;8.20;99.90
52459;DHT22;38372;52.902;6.024;2023-12-20T08:49:39;8.20;99.90
52459;DHT22;38372;52.902;6.024;2023-12-20T08:52:05;8.30;99.90
52459;DHT22;38372;52.902;6.024;2023-12-20T08:54:31;8.70;99.90
52459;DHT22;38372;52.902;6.024;2023-12-20T08:56:57;8.90;99.90
52459;DHT22;38372;52.902;6.024;2023-12-20T08:59:23;8.90;99.90
52459;DHT22;38372;52.902;6.024;2023-12-20T09:01:48;8.70;99.90
52459;DHT22;38372;52.902;6.024;2023-12-20T09:04:20;8.60;99.90
52459;DHT22;38372;52.902;6.024;2023-12-20T09:06:45;8.50;99.90
52459;DHT22;38372;52.902;6.024;2023-12-20T09:09:11;8.50;99.90
52459;DHT22;38372;52.902;6.024;2023-12-20T09:11:39;8.40;99.90
52459;DHT22;38372;52.902;6.024;2023-12-20T09:14:05;8.50;99.90
52459;DHT22;38372;52.902;6.024;2023-12-20T09:16:31;8.90;99.90
52459;DHT22;38372;52.902;6.024;2023-12-20T09:18:57;9.50;99.90
52459;DHT22;38372;52.902;6.024;2023-12-20T09:21:23;10.00;99.90
52459;DHT22;38372;52.902;6.024;2023-12-20T09:23:49;10.40;99.90
52459;DHT22;38372;52.902;6.024;2023-12-20T09:26:15;10.50;99.90
52459;DHT22;38372;52.902;6.024;2023-12-20T09:28:41;10.20;99.90
52459;DHT22;38372;52.902;6.024;2023-12-20T09:31:07;9.90;99.90
52459;DHT22;38372;52.902;6.024;2023-12-20T09:33:33;9.60;99.90
52459;DHT22;38372;52.902;6.024;2023-12-20T09:35:59;9.30;99.90
52459;DHT22;38372;52.902;6.024;2023-12-20T09:38:25;8.90;99.90
52459;DHT22;38372;52.902;6.024;2023-12-20T09:40:51;8.50;99.90
52459;DHT22;38372;52.902;6.024;2023-12-20T09:43:19;8.20;99.90
52459;DHT22;38372;52.902;6.024;2023-12-20T09:45:47;7.90;99.90
52459;DHT22;38372;52.902;6.024;2023-12-20T09:48:13;7.80;99.90
52459;DHT22;38372;52.902;6.024;2023-12-20T09:50:41;7.60;99.90
52459;DHT22;38372;52.902;6.024;2023-12-20T09:53:13;7.50;99.90
52459;DHT22;38372;52.902;6.024;2023-12-20T09:55:41;7.40;99.90
52459;DHT22;38372;52.902;6.024;2023-12-20T09:58:07;7.40;99.90
52459;DHT22;38372;52.902;6.024;2023-12-20T10:00:37;7.30;99.90
52459;DHT22;38372;52.902;6.024;2023-12-20T10:03:03;7.30;99.90
52459;DHT22;38372;52.902;6.024;2023-12-20T10:05:33;7.20;99.90
52459;DHT22;38372;52.902;6.024;2023-12-20T10:08:00;7.10;99.90
52459;DHT22;38372;52.902;6.024;2023-12-20T10:10:27;7.10;99.90
52459;DHT22;38372;52.902;6.024;2023-12-20T10:13:07;7.10;99.90
52459;DHT22;38372;52.902;6.024;2023-12-20T10:15:36;7.00;99.90
52459;DHT22;38372;52.902;6.024;2023-12-20T10:18:03;7.00;99.90
52459;DHT22;38372;52.902;6.024;2023-12-20T10:24:01;6.90;99.90
52459;DHT22;38372;52.902;6.024;2023-12-20T10:26:27;6.90;99.90
52459;DHT22;38372;52.902;6.024;2023-12-20T10:28:56;6.90;99.90
52459;DHT22;38372;52.902;6.024;2023-12-20T10:31:32;6.90;99.90
52459;DHT22;38372;52.902;6.024;2023-12-20T10:34:00;7.00;99.90
52459;DHT22;38372;52.902;6.024;2023-12-20T10:36:28;7.00;99.90
52459;DHT22;38372;52.902;6.024;2023-12-20T10:38:55;7.00;99.90
52459;DHT22;38372;52.902;6.024;2023-12-20T10:41:26;7.00;99.90
52459;DHT22;38372;52.902;6.024;2023-12-20T10:44:03;7.00;99.90
52459;DHT22;38372;52.902;6.024;2023-12-20T10:46:30;7.00;99.90
52459;DHT22;38372;52.902;6.024;2023-12-20T10:48:58;7.00;99.90
52459;DHT22;38372;52.902;6.024;2023-12-20T10:51:24;7.00;99.90
52459;DHT22;38372;52.902;6.024;2023-12-20T10:53:56;7.00;99.90
52459;DHT22;38372;52.902;6.024;2023-12-20T10:56:22;7.00;99.90
52459;DHT22;38372;52.902;6.024;2023-12-20T10:58:52;7.00;99.90
52459;DHT22;38372;52.902;6.024;2023-12-20T11:01:19;7.00;99.90
52459;DHT22;38372;52.902;6.024;2023-12-20T11:03:51;7.00;99.90
52459;DHT22;38372;52.902;6.024;2023-12-20T11:09:06;7.10;99.90
52459;DHT22;38372;52.902;6.024;2023-12-20T11:15:10;7.20;99.90
52459;DHT22;38372;52.902;6.024;2023-12-20T11:17:17;7.10;99.90
52459;DHT22;38372;52.902;6.024;2023-12-20T11:20:04;7.10;99.90
52459;DHT22;38372;52.902;6.024;2023-12-20T11:22:32;7.20;99.90
52459;DHT22;38372;52.902;6.024;2023-12-20T11:25:08;7.20;99.90
52459;DHT22;38372;52.902;6.024;2023-12-20T11:27:35;7.20;99.90
52459;DHT22;38372;52.902;6.024;2023-12-20T11:30:03;7.20;99.90
52459;DHT22;38372;52.902;6.024;2023-12-20T11:32:34;7.20;99.90
52459;DHT22;38372;52.902;6.024;2023-12-20T11:35:16;7.20;99.90
52459;DHT22;38372;52.902;6.024;2023-12-20T11:37:42;7.30;99.90
52459;DHT22;38372;52.902;6.024;2023-12-20T11:40:12;7.30;99.90
52459;DHT22;38372;52.902;6.024;2023-12-20T11:42:41;7.30;99.90
52459;DHT22;38372;52.902;6.024;2023-12-20T11:45:12;7.30;99.90
52459;DHT22;38372;52.902;6.024;2023-12-20T11:47:45;7.30;99.90
52459;DHT22;38372;52.902;6.024;2023-12-20T11:50:11;7.30;99.90
52459;DHT22;38372;52.902;6.024;2023-12-20T11:52:37;7.30;99.90
52459;DHT22;38372;52.902;6.024;2023-12-20T11:55:04;7.30;99.90
52459;DHT22;38372;52.902;6.024;2023-12-20T11:57:31;7.30;99.90
52459;DHT22;38372;52.902;6.024;2023-12-20T11:59:57;7.30;99.90
52459;DHT22;38372;52.902;6.024;2023-12-20T12:02:23;7.30;99.90
52459;DHT22;38372;52.902;6.024;2023-12-20T12:05:11;7.30;99.90
52459;DHT22;38372;52.902;6.024;2023-12-20T12:07:37;7.20;99.90
52459;DHT22;38372;52.902;6.024;2023-12-20T12:10:03;7.20;99.90
52459;DHT22;38372;52.902;6.024;2023-12-20T12:12:29;7.20;99.90
52459;DHT22;38372;52.902;6.024;2023-12-20T12:15:14;7.10;99.90
52459;DHT22;38372;52.902;6.024;2023-12-20T12:17:40;7.00;99.90
52459;DHT22;38372;52.902;6.024;2023-12-20T12:20:07;7.00;99.90
52459;DHT22;38372;52.902;6.024;2023-12-20T12:22:35;7.00;99.90
52459;DHT22;38372;52.902;6.024;2023-12-20T12:25:12;6.90;99.90
52459;DHT22;38372;52.902;6.024;2023-12-20T12:27:43;6.90;99.90
52459;DHT22;38372;52.902;6.024;2023-12-20T12:30:09;6.90;99.90
52459;DHT22;38372;52.902;6.024;2023-12-20T12:32:36;6.80;99.90
52459;DHT22;38372;52.902;6.024;2023-12-20T12:35:05;6.80;99.90
52459;DHT22;38372;52.902;6.024;2023-12-20T12:37:33;6.80;99.90
52459;DHT22;38372;52.902;6.024;2023-12-20T12:39:59;6.80;99.90
52459;DHT22;38372;52.902;6.024;2023-12-20T12:42:25;6.80;99.90
52459;DHT22;38372;52.902;6.024;2023-12-20T12:44:54;6.70;99.90
52459;DHT22;38372;52.902;6.024;2023-12-20T12:47:21;6.70;99.90
52459;DHT22;38372;52.902;6.024;2023-12-20T12:49:49;6.70;99.90
52459;DHT22;38372;52.902;6.024;2023-12-20T12:52:17;6.70;99.90
52459;DHT22;38372;52.902;6.024;2023-12-20T12:54:43;6.70;99.90
52459;DHT22;38372;52.902;6.024;2023-12-20T12:57:11;6.70;99.90
52459;DHT22;38372;52.902;6.024;2023-12-20T12:59:37;6.70;99.90
52459;DHT22;38372;52.902;6.024;2023-12-20T13:02:03;6.70;99.90
52459;DHT22;38372;52.902;6.024;2023-12-20T13:04:29;6.70;99.90
52459;DHT22;38372;52.902;6.024;2023-12-20T13:06:55;6.60;99.90
52459;DHT22;38372;52.902;6.024;2023-12-20T13:09:23;6.60;99.90
52459;DHT22;38372;52.902;6.024;2023-12-20T13:11:49;6.60;99.90
52459;DHT22;38372;52.902;6.024;2023-12-20T13:14:15;6.70;99.90
52459;DHT22;38372;52.902;6.024;2023-12-20T13:16:42;6.70;99.90
52459;DHT22;38372;52.902;6.024;2023-12-20T13:19:08;6.70;99.90
52459;DHT22;38372;52.902;6.024;2023-12-20T13:21:35;6.70;99.90
52459;DHT22;38372;52.902;6.024;2023-12-20T13:24:01;6.70;99.90
52459;DHT22;38372;52.902;6.024;2023-12-20T13:26:27;6.70;99.90
52459;DHT22;38372;52.902;6.024;2023-12-20T13:28:54;6.70;99.90
52459;DHT22;38372;52.902;6.024;2023-12-20T13:31:20;6.70;99.90
52459;DHT22;38372;52.902;6.024;2023-12-20T13:33:46;6.80;99.90
52459;DHT22;38372;52.902;6.024;2023-12-20T13:36:13;6.80;99.90
52459;DHT22;38372;52.902;6.024;2023-12-20T13:38:39;6.80;99.90
52459;DHT22;38372;52.902;6.024;2023-12-20T13:41:05;6.80;99.90
52459;DHT22;38372;52.902;6.024;2023-12-20T13:43:31;6.80;99.90
52459;DHT22;38372;52.902;6.024;2023-12-20T13:45:59;6.90;99.90
52459;DHT22;38372;52.902;6.024;2023-12-20T13:48:24;6.90;99.90
52459;DHT22;38372;52.902;6.024;2023-12-20T13:50:50;6.90;99.90
52459;DHT22;38372;52.902;6.024;2023-12-20T13:53:16;6.90;99.90
52459;DHT22;38372;52.902;6.024;2023-12-20T13:55:42;6.90;99.90
52459;DHT22;38372;52.902;6.024;2023-12-20T13:58:08;6.90;99.90
52459;DHT22;38372;52.902;6.024;2023-12-20T14:00:36;6.90;99.90
52459;DHT22;38372;52.902;6.024;2023-12-20T14:03:03;7.00;99.90
52459;DHT22;38372;52.902;6.024;2023-12-20T14:05:29;7.00;99.90
52459;DHT22;38372;52.902;6.024;2023-12-20T14:07:55;7.00;99.90
52459;DHT22;38372;52.902;6.024;2023-12-20T14:10:24;6.90;99.90
52459;DHT22;38372;52.902;6.024;2023-12-20T14:12:54;6.90;99.90
52459;DHT22;38372;52.902;6.024;2023-12-20T14:15:20;6.90;99.90
52459;DHT22;38372;52.902;6.024;2023-12-20T14:17:52;6.90;99.90
52459;DHT22;38372;52.902;6.024;2023-12-20T14:20:19;6.90;99.90
52459;DHT22;38372;52.902;6.024;2023-12-20T14:23:09;6.90;99.90
52459;DHT22;38372;52.902;6.024;2023-12-20T14:25:46;6.90;99.90
52459;DHT22;38372;52.902;6.024;2023-12-20T14:28:16;6.90;99.90
52459;DHT22;38372;52.902;6.024;2023-12-20T14:30:42;6.90;99.90
52459;DHT22;38372;52.902;6.024;2023-12-20T14:33:08;6.90;99.90
52459;DHT22;38372;52.902;6.024;2023-12-20T14:35:33;7.00;99.90
52459;DHT22;38372;52.902;6.024;2023-12-20T14:38:18;7.00;99.90
52459;DHT22;38372;52.902;6.024;2023-12-20T14:40:44;7.10;99.90
52459;DHT22;38372;52.902;6.024;2023-12-20T14:43:10;7.10;99.90
52459;DHT22;38372;52.902;6.024;2023-12-20T14:45:37;7.20;99.90
52459;DHT22;38372;52.902;6.024;2023-12-20T14:48:04;7.30;99.90
52459;DHT22;38372;52.902;6.024;2023-12-20T14:50:30;7.40;99.90
52459;DHT22;38372;52.902;6.024;2023-12-20T14:52:56;7.50;99.90
52459;DHT22;38372;52.902;6.024;2023-12-20T14:55:22;7.60;99.90
52459;DHT22;38372;52.902;6.024;2023-12-20T14:57:48;7.60;99.90
52459;DHT22;38372;52.902;6.024;2023-12-20T15:00:15;7.60;99.90
52459;DHT22;38372;52.902;6.024;2023-12-20T15:02:42;7.70;99.90
52459;DHT22;38372;52.902;6.024;2023-12-20T15:05:09;7.60;99.90
52459;DHT22;38372;52.902;6.024;2023-12-20T15:08:12;7.60;99.90
52459;DHT22;38372;52.902;6.024;2023-12-20T15:10:37;7.70;99.90
52459;DHT22;38372;52.902;6.024;2023-12-20T15:13:03;7.70;99.90
52459;DHT22;38372;52.902;6.024;2023-12-20T15:15:29;7.70;99.90
52459;DHT22;38372;52.902;6.024;2023-12-20T15:17:57;7.70;99.90
52459;DHT22;38372;52.902;6.024;2023-12-20T15:20:23;7.70;99.90
52459;DHT22;38372;52.902;6.024;2023-12-20T15:22:49;7.80;99.90
52459;DHT22;38372;52.902;6.024;2023-12-20T15:25:15;7.80;99.90
52459;DHT22;38372;52.902;6.024;2023-12-20T15:27:48;7.80;99.90
52459;DHT22;38372;52.902;6.024;2023-12-20T15:30:21;7.80;99.90
52459;DHT22;38372;52.902;6.024;2023-12-20T15:32:47;7.80;99.90
52459;DHT22;38372;52.902;6.024;2023-12-20T15:35:13;7.90;99.90
52459;DHT22;38372;52.902;6.024;2023-12-20T15:37:39;7.90;99.90
52459;DHT22;38372;52.902;6.024;2023-12-20T15:40:07;7.90;99.90
52459;DHT22;38372;52.902;6.024;2023-12-20T15:42:36;7.90;99.90
52459;DHT22;38372;52.902;6.024;2023-12-20T15:45:06;7.90;99.90
52459;DHT22;38372;52.902;6.024;2023-12-20T15:47:34;7.90;99.90
52459;DHT22;38372;52.902;6.024;2023-12-20T15:50:05;7.90;99.90
52459;DHT22;38372;52.902;6.024;2023-12-20T15:52:32;7.80;99.90
52459;DHT22;38372;52.902;6.024;2023-12-20T15:54:58;7.80;99.90